Airfield :







YOU CAN JOIN US ON...

 
LOGIN :

Register | Disclaimer

   EN    FR    IT 

 









Legend :    VFR   Marginal VFR   IFR   Intensive IFR   Very Intensive IFR
Visi :
Ceiling :
>= 8 km
>= 3000ft
5 to 8 km
1000 to 3000 ft
1500m to 5 km
500 to 1000 ft
800 to 1500m
200 to 500 ft
< 800m
< 200 ft
Symbols :   Thunderstorms  Fog  Heavy snow  Heavy precipitations  Wind > 20 kt






- Airport Elevation : 133 ft
- IATA code : BED


KBED - Laurence G Hanscom Field

CURRENT METAR :
  • 200651Z AUTO 24007KT 10SM CLR 11/10 A2984 RMK AO2 SLP117 T01060100

EXPIRED METARs :
  • 200551Z AUTO 24005KT 10SM R11/3000VP6000FT CLR 11/11 A2982 RMK AO2 SLP110 T01110111 10139 20106 52009
  • 200458Z AUTO 23005KT 10SM BKN031 11/11 A2981 RMK AO2 T01110111
  • 200447Z AUTO 23004KT 9SM FEW018 OVC028 12/12 A2981 RMK AO2
  • 200439Z AUTO 00000KT 2SM R11/2800VP6000FT BR OVC028 12/11 A2980 RMK AO2 T01170111
  • 200417Z AUTO 00000KT 1/2SM R11/2400VP6000FT FG FEW003 FEW019 BKN026 12/11 A2980 RMK AO2 T01170111

TAF KBED
Valid from the 20 at 06:00 until the 21 at 06:00 UTC


200532Z 2006/2106 23005KT P6SM SCT030
FM201000 00000KT 3/4SM BR SKC
FM201300 00000KT P6SM SKC
FM201700 16006KT P6SM SCT150
FM210200 15008KT 5SM BR VCSH OVC050
FM210500 17006KT 2SM BR VCSH OVC015
KZBW FIR / North America



MET'MAP, your aeronautical weather chart ! - Copyright ORBIFLY December 2007 - Disclaimer

ORBIFLY MET'MAP TEAM :

Programming & Development : Alexandra Zaïnal
Original concept : Baudouin d'Aumeries
Technical & hardware support : Manuel Goepfert
Assistance : Marc-Olivier Méhu

Contact : metmap@orbifly.com




SOURCES & CREDITS :

   NOAA